sensor_id;sensor_type;location;lat;lon;timestamp;P1;durP1;ratioP1;P2;durP2;ratioP2
1703;SDS011;849;48.780;9.216;2023-02-04T00:00:17;21.73;;;0.90;;
1703;SDS011;849;48.780;9.216;2023-02-04T00:02:44;20.90;;;0.50;;
1703;SDS011;849;48.780;9.216;2023-02-04T00:05:10;20.90;;;0.70;;
1703;SDS011;849;48.780;9.216;2023-02-04T00:07:36;21.23;;;1.17;;
1703;SDS011;849;48.780;9.216;2023-02-04T00:10:03;20.30;;;0.50;;
1703;SDS011;849;48.780;9.216;2023-02-04T00:12:29;20.60;;;0.47;;
1703;SDS011;849;48.780;9.216;2023-02-04T00:14:55;20.83;;;0.60;;
1703;SDS011;849;48.780;9.216;2023-02-04T00:17:21;20.57;;;0.90;;
1703;SDS011;849;48.780;9.216;2023-02-04T00:19:47;20.70;;;0.63;;
1703;SDS011;849;48.780;9.216;2023-02-04T00:22:12;20.60;;;0.50;;
1703;SDS011;849;48.780;9.216;2023-02-04T00:24:38;20.50;;;0.47;;
1703;SDS011;849;48.780;9.216;2023-02-04T00:27:04;20.70;;;0.87;;
1703;SDS011;849;48.780;9.216;2023-02-04T00:29:30;20.50;;;0.50;;
1703;SDS011;849;48.780;9.216;2023-02-04T00:31:56;20.57;;;0.77;;
1703;SDS011;849;48.780;9.216;2023-02-04T00:34:22;21.60;;;1.23;;
1703;SDS011;849;48.780;9.216;2023-02-04T00:36:47;20.27;;;0.40;;
1703;SDS011;849;48.780;9.216;2023-02-04T00:39:13;20.60;;;1.17;;
1703;SDS011;849;48.780;9.216;2023-02-04T00:41:39;22.67;;;1.70;;
1703;SDS011;849;48.780;9.216;2023-02-04T00:44:05;20.70;;;0.50;;
1703;SDS011;849;48.780;9.216;2023-02-04T00:46:30;20.40;;;0.40;;
1703;SDS011;849;48.780;9.216;2023-02-04T00:48:56;20.40;;;0.50;;
1703;SDS011;849;48.780;9.216;2023-02-04T00:51:21;20.60;;;0.47;;
1703;SDS011;849;48.780;9.216;2023-02-04T00:53:47;20.60;;;0.50;;
1703;SDS011;849;48.780;9.216;2023-02-04T00:56:13;20.97;;;1.27;;
1703;SDS011;849;48.780;9.216;2023-02-04T00:58:38;20.70;;;0.83;;
1703;SDS011;849;48.780;9.216;2023-02-04T01:01:04;23.10;;;1.10;;
1703;SDS011;849;48.780;9.216;2023-02-04T01:03:30;20.57;;;0.40;;
1703;SDS011;849;48.780;9.216;2023-02-04T01:05:55;20.80;;;1.00;;
1703;SDS011;849;48.780;9.216;2023-02-04T01:08:21;20.07;;;0.73;;
1703;SDS011;849;48.780;9.216;2023-02-04T01:10:46;22.90;;;1.10;;
1703;SDS011;849;48.780;9.216;2023-02-04T01:13:12;19.60;;;0.60;;
1703;SDS011;849;48.780;9.216;2023-02-04T01:15:38;19.60;;;0.40;;
1703;SDS011;849;48.780;9.216;2023-02-04T01:18:03;20.07;;;0.80;;
1703;SDS011;849;48.780;9.216;2023-02-04T01:20:29;19.40;;;0.50;;
1703;SDS011;849;48.780;9.216;2023-02-04T01:22:55;19.43;;;1.07;;
1703;SDS011;849;48.780;9.216;2023-02-04T01:25:20;19.17;;;1.43;;
1703;SDS011;849;48.780;9.216;2023-02-04T01:27:46;19.90;;;0.90;;
1703;SDS011;849;48.780;9.216;2023-02-04T01:30:12;18.93;;;0.40;;
1703;SDS011;849;48.780;9.216;2023-02-04T01:32:39;18.53;;;0.67;;
1703;SDS011;849;48.780;9.216;2023-02-04T01:35:05;18.40;;;0.50;;
1703;SDS011;849;48.780;9.216;2023-02-04T01:37:31;19.90;;;1.80;;
1703;SDS011;849;48.780;9.216;2023-02-04T01:39:57;18.50;;;0.80;;
1703;SDS011;849;48.780;9.216;2023-02-04T01:42:22;18.60;;;0.40;;
1703;SDS011;849;48.780;9.216;2023-02-04T01:44:48;18.73;;;0.80;;
1703;SDS011;849;48.780;9.216;2023-02-04T01:47:14;19.03;;;1.10;;
1703;SDS011;849;48.780;9.216;2023-02-04T01:49:40;19.07;;;1.03;;
1703;SDS011;849;48.780;9.216;2023-02-04T01:52:06;19.10;;;0.60;;
1703;SDS011;849;48.780;9.216;2023-02-04T01:54:33;19.67;;;0.93;;
1703;SDS011;849;48.780;9.216;2023-02-04T01:56:59;19.17;;;0.50;;
1703;SDS011;849;48.780;9.216;2023-02-04T01:59:25;19.20;;;0.40;;
1703;SDS011;849;48.780;9.216;2023-02-04T02:01:51;19.87;;;0.50;;
1703;SDS011;849;48.780;9.216;2023-02-04T02:06:56;19.70;;;0.90;;
1703;SDS011;849;48.780;9.216;2023-02-04T02:09:26;20.23;;;0.43;;
1703;SDS011;849;48.780;9.216;2023-02-04T02:11:52;20.13;;;0.50;;
1703;SDS011;849;48.780;9.216;2023-02-04T02:14:18;20.00;;;0.50;;
1703;SDS011;849;48.780;9.216;2023-02-04T02:16:44;20.27;;;0.50;;
1703;SDS011;849;48.780;9.216;2023-02-04T02:19:11;20.90;;;1.23;;
1703;SDS011;849;48.780;9.216;2023-02-04T02:21:43;20.67;;;0.50;;
1703;SDS011;849;48.780;9.216;2023-02-04T02:26:53;20.63;;;0.77;;
1703;SDS011;849;48.780;9.216;2023-02-04T02:29:20;20.50;;;0.50;;
1703;SDS011;849;48.780;9.216;2023-02-04T02:31:47;20.60;;;0.40;;
1703;SDS011;849;48.780;9.216;2023-02-04T02:34:13;20.57;;;0.50;;
1703;SDS011;849;48.780;9.216;2023-02-04T02:36:38;20.50;;;0.40;;
1703;SDS011;849;48.780;9.216;2023-02-04T02:39:04;20.30;;;0.50;;
1703;SDS011;849;48.780;9.216;2023-02-04T02:41:30;22.47;;;0.90;;
1703;SDS011;849;48.780;9.216;2023-02-04T02:43:56;21.37;;;0.90;;
1703;SDS011;849;48.780;9.216;2023-02-04T02:46:21;21.60;;;0.50;;
1703;SDS011;849;48.780;9.216;2023-02-04T02:48:47;21.33;;;0.50;;
1703;SDS011;849;48.780;9.216;2023-02-04T02:51:13;21.13;;;0.40;;
1703;SDS011;849;48.780;9.216;2023-02-04T02:53:38;21.50;;;1.17;;
1703;SDS011;849;48.780;9.216;2023-02-04T02:56:04;20.97;;;0.50;;
1703;SDS011;849;48.780;9.216;2023-02-04T02:58:31;21.07;;;0.40;;
1703;SDS011;849;48.780;9.216;2023-02-04T03:00:59;20.83;;;0.43;;
1703;SDS011;849;48.780;9.216;2023-02-04T03:03:29;20.70;;;0.50;;
1703;SDS011;849;48.780;9.216;2023-02-04T03:06:03;20.60;;;0.50;;
1703;SDS011;849;48.780;9.216;2023-02-04T03:08:50;20.50;;;0.50;;
1703;SDS011;849;48.780;9.216;2023-02-04T03:11:20;20.40;;;0.40;;
1703;SDS011;849;48.780;9.216;2023-02-04T03:13:47;20.63;;;0.50;;
1703;SDS011;849;48.780;9.216;2023-02-04T03:16:14;20.50;;;0.40;;
1703;SDS011;849;48.780;9.216;2023-02-04T03:18:40;20.53;;;0.50;;
1703;SDS011;849;48.780;9.216;2023-02-04T03:21:06;20.50;;;0.40;;
1703;SDS011;849;48.780;9.216;2023-02-04T03:23:35;20.60;;;0.47;;
1703;SDS011;849;48.780;9.216;2023-02-04T03:26:01;21.17;;;2.00;;
1703;SDS011;849;48.780;9.216;2023-02-04T03:28:28;20.80;;;0.90;;
1703;SDS011;849;48.780;9.216;2023-02-04T03:30:54;21.00;;;0.67;;
1703;SDS011;849;48.780;9.216;2023-02-04T03:33:21;20.60;;;0.50;;
1703;SDS011;849;48.780;9.216;2023-02-04T03:35:48;20.53;;;0.50;;
1703;SDS011;849;48.780;9.216;2023-02-04T03:38:15;20.60;;;0.70;;
1703;SDS011;849;48.780;9.216;2023-02-04T03:40:41;20.83;;;1.13;;
1703;SDS011;849;48.780;9.216;2023-02-04T03:43:07;21.43;;;0.70;;
1703;SDS011;849;48.780;9.216;2023-02-04T03:45:32;20.40;;;0.40;;
1703;SDS011;849;48.780;9.216;2023-02-04T03:47:58;20.37;;;0.40;;
1703;SDS011;849;48.780;9.216;2023-02-04T03:50:23;21.17;;;0.73;;
1703;SDS011;849;48.780;9.216;2023-02-04T03:52:49;20.37;;;0.50;;
1703;SDS011;849;48.780;9.216;2023-02-04T03:55:16;28.10;;;1.23;;
1703;SDS011;849;48.780;9.216;2023-02-04T03:57:42;20.53;;;0.50;;
1703;SDS011;849;48.780;9.216;2023-02-04T04:00:08;20.40;;;0.40;;
1703;SDS011;849;48.780;9.216;2023-02-04T04:02:34;21.90;;;1.27;;
1703;SDS011;849;48.780;9.216;2023-02-04T04:05:00;20.17;;;0.50;;
1703;SDS011;849;48.780;9.216;2023-02-04T04:07:26;20.20;;;0.50;;
1703;SDS011;849;48.780;9.216;2023-02-04T04:09:51;19.87;;;0.40;;
1703;SDS011;849;48.780;9.216;2023-02-04T04:12:17;20.00;;;0.40;;
1703;SDS011;849;48.780;9.216;2023-02-04T04:14:43;19.70;;;0.50;;
1703;SDS011;849;48.780;9.216;2023-02-04T04:17:08;19.70;;;0.50;;
1703;SDS011;849;48.780;9.216;2023-02-04T04:19:34;19.90;;;0.40;;
1703;SDS011;849;48.780;9.216;2023-02-04T04:22:00;20.03;;;0.50;;
1703;SDS011;849;48.780;9.216;2023-02-04T04:24:26;21.93;;;2.10;;
1703;SDS011;849;48.780;9.216;2023-02-04T04:26:51;20.80;;;1.47;;
1703;SDS011;849;48.780;9.216;2023-02-04T04:29:17;19.90;;;0.40;;
1703;SDS011;849;48.780;9.216;2023-02-04T04:31:43;19.70;;;0.40;;
1703;SDS011;849;48.780;9.216;2023-02-04T04:34:09;19.90;;;0.40;;
1703;SDS011;849;48.780;9.216;2023-02-04T04:36:35;19.73;;;0.40;;
1703;SDS011;849;48.780;9.216;2023-02-04T04:39:01;20.07;;;0.80;;
1703;SDS011;849;48.780;9.216;2023-02-04T04:41:26;19.73;;;0.50;;
1703;SDS011;849;48.780;9.216;2023-02-04T04:43:52;19.70;;;0.40;;
1703;SDS011;849;48.780;9.216;2023-02-04T04:46:17;19.90;;;0.40;;
1703;SDS011;849;48.780;9.216;2023-02-04T04:48:43;19.50;;;0.50;;
1703;SDS011;849;48.780;9.216;2023-02-04T04:51:09;19.87;;;0.70;;
1703;SDS011;849;48.780;9.216;2023-02-04T04:53:35;20.27;;;0.60;;
1703;SDS011;849;48.780;9.216;2023-02-04T04:56:01;20.07;;;1.43;;
1703;SDS011;849;48.780;9.216;2023-02-04T04:58:26;19.53;;;0.43;;
1703;SDS011;849;48.780;9.216;2023-02-04T05:00:52;19.73;;;0.50;;
1703;SDS011;849;48.780;9.216;2023-02-04T05:03:17;19.93;;;0.40;;
1703;SDS011;849;48.780;9.216;2023-02-04T05:05:43;19.67;;;0.50;;
1703;SDS011;849;48.780;9.216;2023-02-04T05:08:09;19.57;;;0.40;;
1703;SDS011;849;48.780;9.216;2023-02-04T05:10:40;19.90;;;0.40;;
1703;SDS011;849;48.780;9.216;2023-02-04T05:13:07;20.40;;;1.23;;
1703;SDS011;849;48.780;9.216;2023-02-04T05:15:33;19.67;;;0.60;;
1703;SDS011;849;48.780;9.216;2023-02-04T05:17:58;19.97;;;0.70;;
1703;SDS011;849;48.780;9.216;2023-02-04T05:20:24;19.77;;;0.40;;
1703;SDS011;849;48.780;9.216;2023-02-04T05:22:50;19.53;;;0.50;;
1703;SDS011;849;48.780;9.216;2023-02-04T05:25:16;19.70;;;0.50;;
1703;SDS011;849;48.780;9.216;2023-02-04T05:27:42;19.50;;;0.40;;
1703;SDS011;849;48.780;9.216;2023-02-04T05:30:11;19.80;;;0.40;;
1703;SDS011;849;48.780;9.216;2023-02-04T05:32:37;20.17;;;0.60;;
1703;SDS011;849;48.780;9.216;2023-02-04T05:35:04;19.60;;;0.40;;
1703;SDS011;849;48.780;9.216;2023-02-04T05:37:30;20.00;;;0.50;;
1703;SDS011;849;48.780;9.216;2023-02-04T05:39:56;19.93;;;0.50;;
1703;SDS011;849;48.780;9.216;2023-02-04T05:42:21;19.60;;;0.50;;
1703;SDS011;849;48.780;9.216;2023-02-04T05:44:47;19.80;;;0.80;;
1703;SDS011;849;48.780;9.216;2023-02-04T05:47:13;19.80;;;0.40;;
1703;SDS011;849;48.780;9.216;2023-02-04T05:49:39;19.97;;;0.50;;
1703;SDS011;849;48.780;9.216;2023-02-04T05:52:04;19.77;;;0.40;;
1703;SDS011;849;48.780;9.216;2023-02-04T05:54:30;21.30;;;1.13;;
1703;SDS011;849;48.780;9.216;2023-02-04T05:56:56;20.20;;;0.97;;
1703;SDS011;849;48.780;9.216;2023-02-04T05:59:21;19.77;;;0.70;;
1703;SDS011;849;48.780;9.216;2023-02-04T06:01:47;19.93;;;0.77;;
1703;SDS011;849;48.780;9.216;2023-02-04T06:04:13;19.80;;;0.40;;
1703;SDS011;849;48.780;9.216;2023-02-04T06:06:40;20.27;;;1.13;;
1703;SDS011;849;48.780;9.216;2023-02-04T06:09:09;19.70;;;0.40;;
1703;SDS011;849;48.780;9.216;2023-02-04T06:11:35;19.97;;;0.80;;
1703;SDS011;849;48.780;9.216;2023-02-04T06:14:00;28.73;;;6.40;;
1703;SDS011;849;48.780;9.216;2023-02-04T06:16:26;19.70;;;0.40;;
1703;SDS011;849;48.780;9.216;2023-02-04T06:18:52;20.07;;;0.80;;
1703;SDS011;849;48.780;9.216;2023-02-04T06:21:17;19.70;;;0.40;;
1703;SDS011;849;48.780;9.216;2023-02-04T06:23:43;19.73;;;0.50;;
1703;SDS011;849;48.780;9.216;2023-02-04T06:26:09;19.80;;;0.40;;
1703;SDS011;849;48.780;9.216;2023-02-04T06:28:35;19.67;;;0.80;;
1703;SDS011;849;48.780;9.216;2023-02-04T06:31:00;20.27;;;1.17;;
1703;SDS011;849;48.780;9.216;2023-02-04T06:33:26;19.70;;;0.40;;
1703;SDS011;849;48.780;9.216;2023-02-04T06:35:52;19.47;;;0.40;;
1703;SDS011;849;48.780;9.216;2023-02-04T06:38:17;19.63;;;0.50;;
1703;SDS011;849;48.780;9.216;2023-02-04T06:40:43;20.13;;;1.20;;
1703;SDS011;849;48.780;9.216;2023-02-04T06:43:13;19.50;;;0.40;;
1703;SDS011;849;48.780;9.216;2023-02-04T06:45:39;19.57;;;0.40;;
1703;SDS011;849;48.780;9.216;2023-02-04T06:48:05;19.40;;;0.70;;
1703;SDS011;849;48.780;9.216;2023-02-04T06:50:31;19.57;;;0.40;;
1703;SDS011;849;48.780;9.216;2023-02-04T06:52:56;19.63;;;0.50;;
1703;SDS011;849;48.780;9.216;2023-02-04T06:55:22;21.57;;;4.73;;
1703;SDS011;849;48.780;9.216;2023-02-04T06:57:47;29.03;;;3.07;;
1703;SDS011;849;48.780;9.216;2023-02-04T07:00:13;19.60;;;0.40;;
1703;SDS011;849;48.780;9.216;2023-02-04T07:02:39;19.60;;;0.40;;
1703;SDS011;849;48.780;9.216;2023-02-04T07:05:06;19.70;;;0.50;;
1703;SDS011;849;48.780;9.216;2023-02-04T07:07:32;19.60;;;0.40;;
1703;SDS011;849;48.780;9.216;2023-02-04T07:09:58;19.70;;;0.60;;
1703;SDS011;849;48.780;9.216;2023-02-04T07:12:24;19.57;;;0.40;;
1703;SDS011;849;48.780;9.216;2023-02-04T07:14:49;23.83;;;1.20;;
1703;SDS011;849;48.780;9.216;2023-02-04T07:17:15;19.67;;;0.50;;
1703;SDS011;849;48.780;9.216;2023-02-04T07:19:41;19.40;;;0.40;;
1703;SDS011;849;48.780;9.216;2023-02-04T07:22:06;19.70;;;0.40;;
1703;SDS011;849;48.780;9.216;2023-02-04T07:24:32;19.60;;;0.40;;
1703;SDS011;849;48.780;9.216;2023-02-04T07:26:58;19.80;;;0.40;;
1703;SDS011;849;48.780;9.216;2023-02-04T07:29:23;20.37;;;0.60;;
1703;SDS011;849;48.780;9.216;2023-02-04T07:31:50;20.27;;;0.50;;
1703;SDS011;849;48.780;9.216;2023-02-04T07:34:16;21.07;;;0.80;;
1703;SDS011;849;48.780;9.216;2023-02-04T07:36:42;20.77;;;1.23;;
1703;SDS011;849;48.780;9.216;2023-02-04T07:39:08;21.20;;;1.63;;
1703;SDS011;849;48.780;9.216;2023-02-04T07:41:35;20.53;;;1.70;;
1703;SDS011;849;48.780;9.216;2023-02-04T07:44:01;20.20;;;0.50;;
1703;SDS011;849;48.780;9.216;2023-02-04T07:46:26;20.27;;;0.47;;
1703;SDS011;849;48.780;9.216;2023-02-04T07:48:52;20.37;;;0.40;;
1703;SDS011;849;48.780;9.216;2023-02-04T07:51:18;20.47;;;0.50;;
1703;SDS011;849;48.780;9.216;2023-02-04T07:53:43;20.50;;;0.50;;
1703;SDS011;849;48.780;9.216;2023-02-04T07:56:09;25.30;;;1.23;;
1703;SDS011;849;48.780;9.216;2023-02-04T07:58:35;20.93;;;1.00;;
1703;SDS011;849;48.780;9.216;2023-02-04T08:01:00;20.93;;;0.50;;
1703;SDS011;849;48.780;9.216;2023-02-04T08:03:28;20.80;;;0.50;;
1703;SDS011;849;48.780;9.216;2023-02-04T08:05:53;20.53;;;0.40;;
1703;SDS011;849;48.780;9.216;2023-02-04T08:08:20;21.07;;;1.10;;
1703;SDS011;849;48.780;9.216;2023-02-04T08:10:45;20.80;;;0.50;;
1703;SDS011;849;48.780;9.216;2023-02-04T08:13:11;20.83;;;0.50;;
1703;SDS011;849;48.780;9.216;2023-02-04T08:15:37;20.97;;;0.57;;
1703;SDS011;849;48.780;9.216;2023-02-04T08:18:03;21.10;;;0.50;;
1703;SDS011;849;48.780;9.216;2023-02-04T08:20:29;21.20;;;0.60;;
1703;SDS011;849;48.780;9.216;2023-02-04T08:22:54;21.67;;;0.70;;
1703;SDS011;849;48.780;9.216;2023-02-04T08:25:21;21.67;;;0.50;;
1703;SDS011;849;48.780;9.216;2023-02-04T08:27:46;22.07;;;0.63;;
1703;SDS011;849;48.780;9.216;2023-02-04T08:30:12;22.10;;;0.60;;
1703;SDS011;849;48.780;9.216;2023-02-04T08:32:38;22.00;;;0.43;;
1703;SDS011;849;48.780;9.216;2023-02-04T08:35:04;22.13;;;0.50;;
1703;SDS011;849;48.780;9.216;2023-02-04T08:37:30;22.23;;;0.47;;
1703;SDS011;849;48.780;9.216;2023-02-04T08:39:56;23.30;;;2.97;;
1703;SDS011;849;48.780;9.216;2023-02-04T08:42:21;22.30;;;0.50;;
1703;SDS011;849;48.780;9.216;2023-02-04T08:44:47;22.40;;;0.50;;
1703;SDS011;849;48.780;9.216;2023-02-04T08:47:12;22.30;;;0.50;;
1703;SDS011;849;48.780;9.216;2023-02-04T08:49:38;22.30;;;0.50;;
1703;SDS011;849;48.780;9.216;2023-02-04T08:52:04;22.40;;;0.50;;
1703;SDS011;849;48.780;9.216;2023-02-04T08:54:31;22.40;;;0.50;;
1703;SDS011;849;48.780;9.216;2023-02-04T08:56:57;22.50;;;0.80;;
1703;SDS011;849;48.780;9.216;2023-02-04T08:59:23;22.20;;;0.50;;
1703;SDS011;849;48.780;9.216;2023-02-04T09:01:50;22.20;;;0.50;;
1703;SDS011;849;48.780;9.216;2023-02-04T09:04:19;22.17;;;0.50;;
1703;SDS011;849;48.780;9.216;2023-02-04T09:06:49;22.10;;;0.50;;
1703;SDS011;849;48.780;9.216;2023-02-04T09:09:15;22.13;;;0.50;;
1703;SDS011;849;48.780;9.216;2023-02-04T09:11:41;22.10;;;0.50;;
1703;SDS011;849;48.780;9.216;2023-02-04T09:14:07;22.20;;;0.50;;
1703;SDS011;849;48.780;9.216;2023-02-04T09:16:33;22.27;;;0.50;;
1703;SDS011;849;48.780;9.216;2023-02-04T09:18:59;22.27;;;0.50;;
1703;SDS011;849;48.780;9.216;2023-02-04T09:21:26;22.13;;;0.50;;
1703;SDS011;849;48.780;9.216;2023-02-04T09:23:52;22.20;;;0.50;;
1703;SDS011;849;48.780;9.216;2023-02-04T09:26:18;22.20;;;0.50;;
1703;SDS011;849;48.780;9.216;2023-02-04T09:28:44;22.23;;;0.50;;
1703;SDS011;849;48.780;9.216;2023-02-04T09:31:09;22.20;;;0.50;;
1703;SDS011;849;48.780;9.216;2023-02-04T09:33:36;22.20;;;0.50;;
1703;SDS011;849;48.780;9.216;2023-02-04T09:36:01;22.00;;;0.50;;
1703;SDS011;849;48.780;9.216;2023-02-04T09:38:27;22.00;;;0.50;;
1703;SDS011;849;48.780;9.216;2023-02-04T09:40:54;22.10;;;0.50;;
1703;SDS011;849;48.780;9.216;2023-02-04T09:43:23;25.73;;;0.80;;
1703;SDS011;849;48.780;9.216;2023-02-04T09:45:52;21.67;;;0.50;;
1703;SDS011;849;48.780;9.216;2023-02-04T09:48:18;21.67;;;0.50;;
1703;SDS011;849;48.780;9.216;2023-02-04T09:50:46;21.60;;;0.40;;
1703;SDS011;849;48.780;9.216;2023-02-04T09:53:13;21.67;;;0.50;;
1703;SDS011;849;48.780;9.216;2023-02-04T09:55:44;21.10;;;0.50;;
1703;SDS011;849;48.780;9.216;2023-02-04T09:58:14;20.30;;;0.60;;
1703;SDS011;849;48.780;9.216;2023-02-04T10:00:45;20.80;;;1.80;;
1703;SDS011;849;48.780;9.216;2023-02-04T10:03:16;18.57;;;0.60;;
1703;SDS011;849;48.780;9.216;2023-02-04T10:05:44;19.13;;;0.80;;
1703;SDS011;849;48.780;9.216;2023-02-04T10:08:14;18.90;;;0.40;;
1703;SDS011;849;48.780;9.216;2023-02-04T10:10:48;18.80;;;0.40;;
1703;SDS011;849;48.780;9.216;2023-02-04T10:13:22;18.97;;;0.40;;
1703;SDS011;849;48.780;9.216;2023-02-04T10:15:59;20.80;;;4.17;;
1703;SDS011;849;48.780;9.216;2023-02-04T10:18:29;22.90;;;2.30;;
1703;SDS011;849;48.780;9.216;2023-02-04T10:23:47;17.00;;;0.40;;
1703;SDS011;849;48.780;9.216;2023-02-04T10:26:16;16.90;;;0.73;;
1703;SDS011;849;48.780;9.216;2023-02-04T10:28:43;16.40;;;0.40;;
1703;SDS011;849;48.780;9.216;2023-02-04T10:31:30;16.37;;;0.40;;
1703;SDS011;849;48.780;9.216;2023-02-04T10:34:05;16.07;;;0.60;;
1703;SDS011;849;48.780;9.216;2023-02-04T10:36:31;15.90;;;0.40;;
1703;SDS011;849;48.780;9.216;2023-02-04T10:38:58;16.23;;;0.40;;
1703;SDS011;849;48.780;9.216;2023-02-04T10:41:25;16.30;;;0.70;;
1703;SDS011;849;48.780;9.216;2023-02-04T10:43:54;17.48;;;0.40;;
1703;SDS011;849;48.780;9.216;2023-02-04T10:46:28;16.57;;;0.40;;
1703;SDS011;849;48.780;9.216;2023-02-04T10:48:55;15.97;;;0.50;;
1703;SDS011;849;48.780;9.216;2023-02-04T10:51:21;16.33;;;0.40;;
1703;SDS011;849;48.780;9.216;2023-02-04T10:53:47;16.63;;;0.40;;
1703;SDS011;849;48.780;9.216;2023-02-04T10:56:32;16.33;;;0.40;;
1703;SDS011;849;48.780;9.216;2023-02-04T10:58:57;15.83;;;0.40;;
1703;SDS011;849;48.780;9.216;2023-02-04T11:01:23;15.70;;;0.40;;
1703;SDS011;849;48.780;9.216;2023-02-04T11:03:52;15.90;;;0.40;;
1703;SDS011;849;48.780;9.216;2023-02-04T11:06:22;16.13;;;0.50;;
1703;SDS011;849;48.780;9.216;2023-02-04T11:08:49;16.10;;;0.97;;
1703;SDS011;849;48.780;9.216;2023-02-04T11:11:22;15.57;;;0.40;;
1703;SDS011;849;48.780;9.216;2023-02-04T11:21:20;15.33;;;0.40;;
1703;SDS011;849;48.780;9.216;2023-02-04T11:23:47;17.60;;;1.43;;
1703;SDS011;849;48.780;9.216;2023-02-04T11:26:30;15.23;;;0.40;;
1703;SDS011;849;48.780;9.216;2023-02-04T11:34:43;15.37;;;0.40;;
1703;SDS011;849;48.780;9.216;2023-02-04T11:39:42;22.87;;;0.80;;
1703;SDS011;849;48.780;9.216;2023-02-04T11:42:19;14.87;;;0.60;;
1703;SDS011;849;48.780;9.216;2023-02-04T11:45:19;14.83;;;0.40;;
1703;SDS011;849;48.780;9.216;2023-02-04T11:47:38;14.97;;;0.40;;
1703;SDS011;849;48.780;9.216;2023-02-04T11:50:12;14.57;;;1.13;;
1703;SDS011;849;48.780;9.216;2023-02-04T11:52:41;14.87;;;0.40;;
1703;SDS011;849;48.780;9.216;2023-02-04T11:55:09;14.93;;;0.40;;
1703;SDS011;849;48.780;9.216;2023-02-04T11:57:39;14.83;;;0.40;;
1703;SDS011;849;48.780;9.216;2023-02-04T12:00:14;15.07;;;0.40;;
1703;SDS011;849;48.780;9.216;2023-02-04T12:02:46;15.07;;;0.70;;
1703;SDS011;849;48.780;9.216;2023-02-04T12:05:19;14.87;;;0.40;;
1703;SDS011;849;48.780;9.216;2023-02-04T12:07:45;14.77;;;0.40;;
1703;SDS011;849;48.780;9.216;2023-02-04T12:10:18;14.83;;;0.40;;
1703;SDS011;849;48.780;9.216;2023-02-04T12:12:50;14.87;;;0.40;;
1703;SDS011;849;48.780;9.216;2023-02-04T12:15:37;14.90;;;0.40;;
1703;SDS011;849;48.780;9.216;2023-02-04T12:18:07;14.77;;;0.40;;
1703;SDS011;849;48.780;9.216;2023-02-04T12:20:34;15.33;;;0.60;;
1703;SDS011;849;48.780;9.216;2023-02-04T12:23:01;14.87;;;0.40;;
1703;SDS011;849;48.780;9.216;2023-02-04T12:25:27;14.43;;;0.40;;
1703;SDS011;849;48.780;9.216;2023-02-04T12:27:53;14.27;;;0.50;;
1703;SDS011;849;48.780;9.216;2023-02-04T12:30:20;14.43;;;0.40;;
1703;SDS011;849;48.780;9.216;2023-02-04T12:32:46;14.57;;;0.97;;
1703;SDS011;849;48.780;9.216;2023-02-04T12:35:12;14.17;;;0.40;;
1703;SDS011;849;48.780;9.216;2023-02-04T12:37:38;13.97;;;0.40;;
1703;SDS011;849;48.780;9.216;2023-02-04T12:40:04;13.53;;;0.40;;
1703;SDS011;849;48.780;9.216;2023-02-04T12:42:30;13.90;;;0.50;;
1703;SDS011;849;48.780;9.216;2023-02-04T12:44:56;13.57;;;0.40;;
1703;SDS011;849;48.780;9.216;2023-02-04T12:47:22;13.77;;;0.40;;
1703;SDS011;849;48.780;9.216;2023-02-04T12:49:48;14.10;;;1.17;;
1703;SDS011;849;48.780;9.216;2023-02-04T12:52:13;13.37;;;0.40;;
1703;SDS011;849;48.780;9.216;2023-02-04T12:54:39;14.17;;;0.83;;
1703;SDS011;849;48.780;9.216;2023-02-04T12:57:05;14.00;;;0.40;;
1703;SDS011;849;48.780;9.216;2023-02-04T12:59:30;13.93;;;0.40;;
1703;SDS011;849;48.780;9.216;2023-02-04T13:01:56;13.97;;;0.40;;
1703;SDS011;849;48.780;9.216;2023-02-04T13:04:22;14.07;;;0.40;;
1703;SDS011;849;48.780;9.216;2023-02-04T13:06:48;13.47;;;0.40;;
1703;SDS011;849;48.780;9.216;2023-02-04T13:09:13;13.80;;;0.40;;
1703;SDS011;849;48.780;9.216;2023-02-04T13:11:39;13.97;;;0.40;;
1703;SDS011;849;48.780;9.216;2023-02-04T13:14:05;14.03;;;0.40;;
1703;SDS011;849;48.780;9.216;2023-02-04T13:16:30;13.73;;;0.40;;
1703;SDS011;849;48.780;9.216;2023-02-04T13:18:56;11.67;;;0.40;;
1703;SDS011;849;48.780;9.216;2023-02-04T13:21:22;11.93;;;0.40;;
1703;SDS011;849;48.780;9.216;2023-02-04T13:23:47;11.87;;;0.40;;
1703;SDS011;849;48.780;9.216;2023-02-04T13:26:13;11.73;;;0.60;;
1703;SDS011;849;48.780;9.216;2023-02-04T13:28:39;12.07;;;2.00;;
1703;SDS011;849;48.780;9.216;2023-02-04T13:31:05;11.30;;;0.73;;
1703;SDS011;849;48.780;9.216;2023-02-04T13:33:31;11.13;;;0.30;;
1703;SDS011;849;48.780;9.216;2023-02-04T13:35:57;11.27;;;0.40;;
1703;SDS011;849;48.780;9.216;2023-02-04T13:38:23;11.53;;;0.30;;
1703;SDS011;849;48.780;9.216;2023-02-04T13:40:49;11.67;;;0.40;;
1703;SDS011;849;48.780;9.216;2023-02-04T13:43:15;11.73;;;0.30;;
1703;SDS011;849;48.780;9.216;2023-02-04T13:45:41;11.97;;;0.30;;
1703;SDS011;849;48.780;9.216;2023-02-04T13:48:11;11.97;;;0.40;;
1703;SDS011;849;48.780;9.216;2023-02-04T13:50:38;11.97;;;0.30;;
1703;SDS011;849;48.780;9.216;2023-02-04T13:53:03;12.03;;;0.40;;
1703;SDS011;849;48.780;9.216;2023-02-04T13:55:29;11.63;;;0.50;;
1703;SDS011;849;48.780;9.216;2023-02-04T13:57:54;11.67;;;0.30;;
1703;SDS011;849;48.780;9.216;2023-02-04T14:00:20;11.63;;;0.40;;
1703;SDS011;849;48.780;9.216;2023-02-04T14:02:46;11.63;;;0.40;;
1703;SDS011;849;48.780;9.216;2023-02-04T14:05:13;11.43;;;0.40;;
1703;SDS011;849;48.780;9.216;2023-02-04T14:07:39;60.33;;;2.60;;
1703;SDS011;849;48.780;9.216;2023-02-04T14:10:05;11.13;;;0.40;;
1703;SDS011;849;48.780;9.216;2023-02-04T14:12:31;11.33;;;0.30;;
1703;SDS011;849;48.780;9.216;2023-02-04T14:14:57;11.43;;;0.50;;
1703;SDS011;849;48.780;9.216;2023-02-04T14:17:22;11.63;;;0.40;;
1703;SDS011;849;48.780;9.216;2023-02-04T14:19:48;11.53;;;0.30;;
1703;SDS011;849;48.780;9.216;2023-02-04T14:22:14;11.57;;;0.40;;
1703;SDS011;849;48.780;9.216;2023-02-04T14:24:40;11.47;;;0.40;;
1703;SDS011;849;48.780;9.216;2023-02-04T14:27:07;11.63;;;0.40;;
1703;SDS011;849;48.780;9.216;2023-02-04T14:29:33;11.67;;;0.40;;
1703;SDS011;849;48.780;9.216;2023-02-04T14:31:59;11.63;;;0.40;;
1703;SDS011;849;48.780;9.216;2023-02-04T14:34:25;11.67;;;0.40;;
1703;SDS011;849;48.780;9.216;2023-02-04T14:36:51;11.63;;;0.33;;
1703;SDS011;849;48.780;9.216;2023-02-04T14:39:17;11.47;;;0.40;;
1703;SDS011;849;48.780;9.216;2023-02-04T14:41:42;11.33;;;0.40;;
1703;SDS011;849;48.780;9.216;2023-02-04T14:44:08;11.17;;;0.40;;
1703;SDS011;849;48.780;9.216;2023-02-04T14:46:34;11.17;;;0.30;;
1703;SDS011;849;48.780;9.216;2023-02-04T14:49:00;11.07;;;0.30;;
1703;SDS011;849;48.780;9.216;2023-02-04T14:51:26;11.27;;;0.40;;
1703;SDS011;849;48.780;9.216;2023-02-04T14:53:51;11.30;;;0.30;;
1703;SDS011;849;48.780;9.216;2023-02-04T14:56:17;11.07;;;0.40;;
1703;SDS011;849;48.780;9.216;2023-02-04T14:58:43;10.77;;;0.40;;
1703;SDS011;849;48.780;9.216;2023-02-04T15:01:09;10.93;;;0.40;;
1703;SDS011;849;48.780;9.216;2023-02-04T15:03:35;10.57;;;0.40;;
1703;SDS011;849;48.780;9.216;2023-02-04T15:06:01;10.43;;;0.60;;
1703;SDS011;849;48.780;9.216;2023-02-04T15:08:26;10.17;;;0.30;;
1703;SDS011;849;48.780;9.216;2023-02-04T15:10:52;10.43;;;0.30;;
1703;SDS011;849;48.780;9.216;2023-02-04T15:13:17;10.70;;;0.40;;
1703;SDS011;849;48.780;9.216;2023-02-04T15:15:43;11.10;;;1.60;;
1703;SDS011;849;48.780;9.216;2023-02-04T15:18:09;10.87;;;0.40;;
1703;SDS011;849;48.780;9.216;2023-02-04T15:20:34;10.87;;;0.30;;
1703;SDS011;849;48.780;9.216;2023-02-04T15:23:00;10.63;;;0.30;;
1703;SDS011;849;48.780;9.216;2023-02-04T15:25:26;10.47;;;0.40;;
1703;SDS011;849;48.780;9.216;2023-02-04T15:27:52;10.60;;;0.30;;
1703;SDS011;849;48.780;9.216;2023-02-04T15:30:17;10.37;;;0.40;;
1703;SDS011;849;48.780;9.216;2023-02-04T15:32:43;10.27;;;0.40;;
1703;SDS011;849;48.780;9.216;2023-02-04T15:35:10;10.43;;;0.40;;